Terminal Aerodrome Forecast
Issued by NWS

Home | Current Version | Previous Version | Text Only | Print | Product List | Glossary On
Versions: 1 2 3 4 5 6 7 8 9 10 11 12 13 14 15 16 17 18 19 20 21 22 23 24 25
000
FTUS45 KGJT 182021 AAA
TAFDRO
TAF AMD
KDRO 182021Z 1820/1918 VRB03KT P6SM FEW250 WS020/23035KT
     FM182100 24013G23KT P6SM FEW070 FEW250
     FM190200 24009KT P6SM FEW080 SCT250
     FM190900 20010KT P6SM VCSH SCT040 BKN070
     FM191300 20012KT P6SM -SHSNRA OVC020
     FM191700 21014G23KT P6SM -SHRA BKN020 OVC025=

USA.gov is the U.S. government's official web portal to all federal, state and local government web resources and services.